Terminal Aerodrome Forecast
Issued by NWS

Home | Current Version | Previous Version | Text Only | Print | Product List | Glossary On
Versions: 1 2 3 4 5 6 7 8 9 10 11 12 13 14 15 16 17 18 19 20 21 22 23 24 25 26 27 28 29 30 31 32
197
FTUS43 KLOT 261126
TAFORD
TAF
KORD 261126Z 2612/2718 20010KT P6SM SCT080 BKN250
      TEMPO 2614/2616 6SM -TSRA BKN050CB
     FM261700 20012KT P6SM SCT050 BKN250
     FM270100 18007KT P6SM SCT250
     FM271400 20011KT P6SM SCT050 BKN250=

USA.gov is the U.S. government's official web portal to all federal, state and local government web resources and services.